Terminal Aerodrome Forecast
Issued by NWS

Home | Current Version | Previous Version | Text Only | Print | Product List | Glossary On
Versions: 1 2 3 4 5 6 7 8 9 10 11 12 13 14 15
000
FTUS45 KRIW 151100
TAFCPR
TAF
KCPR 151126Z 1512/1612 03011KT P6SM OVC100
     FM151300 03010KT P6SM VCSH OVC060
     FM151500 36012KT P6SM VCSH OVC030
     FM151800 01011KT 2SM -SN OVC012
     FM160300 01010KT 4SM -SN OVC018=

USA.gov is the U.S. government's official web portal to all federal, state and local government web resources and services.